Aérodrome :
LOGIN :

S'inscrire | Disclaimer

   EN    FR    IT 

 










Légende :    VFR   VFR Marginal   IFR   IFR Intensif   IFR Très Intensif
Visi : 
Plafond : 
>= 8 km
>= 3000ft
5 à 8 km
1000 à 3000 ft
1500m à 5 km
500 à 1000 ft
800 à 1500m
200 à 500 ft
< 800m
< 200 ft
Symboles :   Orages  Brouillard  Fortes neiges  Fortes précipitations  Vent > 20 kt
SIGMETs :   Divers  Orages  Givrage  Turbulence  Onde Orograph.  Cendres Volcan.






- Altitude de l'aérodrome : 1197 ft
- Code IATA : SPM


ETAD - Spangdahlem Ab

DERNIER METAR :
  • 301033Z 25013KT 9999 OVC005 02/M01 A3008 RMK AO2A RAE18 CIG 004 RWY23 SLP190 FZRANO $

METARs EXPIRÉS :
  • 300958Z COR AUTO 25009KT 9000 -RA OVC004 02/M01 A3009 RMK AO2 SLP193 FZRANO $ COR 1011
  • 300955Z 24011KT 9000 -RA OVC004 02/M01 A3009 RMK AO2A RAE14RAB36 SLP193 P0000 T00161011 FZRANO $
  • 300929Z 24012KT 8000 BR OVC005 01/M01 A3008 RMK AO2A RAE14 CIG 003 RWY23 SLP190 FZRANO $
  • 300914Z 24012KT 9000 BR OVC004 01/M01 A3007 RMK AO2A RAE14 CIG 003 RWY23 PRESFR SLP187 FZRANO $
  • 300855Z 25011G18KT 8000 -RA OVC004 01/M01 A3009 RMK AO2A RAE03DZB03E08RAB08E21DZB21E32DZB34E45RAB45 CIG 003 RWY23 SLP193 P0001 60002 T00111015 52007 FZRANO $
  • 300832Z 23012KT 9000 BR OVC003 01/M01 A3008 RMK AO2A VIS 4400 RWY23 RAE03DZB03E08RAB08E21DZB21E32 SLP190 FZRANO $
  • 300810Z 23011KT 9000 -RA OVC003 01/M02 A3008 RMK AO2A VIS 4400 RWY23 RAE03DZB03E08RAB08 SLP190 FZRANO $
  • 300755Z 23010KT 4800 -RA BR OVC003 00/M02 A3008 RMK AO2A VIS 4000 RWY23 RAB0650E02DZB05E11RAB16E23SNB23E34RAB34E41RAB41 SLP191 P0001 T00041022 FZRANO $
  • 300742Z 24010KT 4800 -RA OVC003 01/M02 A3009 RMK AO2A VIS 3200 RWY23 RAE02FZRAB02E05DZB05E11FZRAB11E16RAB16E23SNB23E34RAB34E41RAB41 SLP193 FZRANO $

TAF AMD TAF ETAD
Valide du 30 à 06h jusqu'au 31 à 11h UTC


300630Z 3006/3111 25012G18KT 8000 -RASN BKN003 650104 QNH3005INS
TEMPO 3006/3009 BKN002
BECMG 3012/3013 26012KT 9999 NSW BKN020 650203 QNH3007INS
BECMG 3102/3103 26006KT 6000 BR BKN005 650103 QNH3024INS TX05/3014Z TN00/3006Z



MET'MAP, la Météo Aéronautique d'un coup d'oeil ! - Copyright ORBIFLY Décembre 2007 - Disclaimer

ORBIFLY MET'MAP TEAM :

Programmation & Développement : Alexandra Zaïnal
Sur une idée originale de : Baudouin d'Aumeries
Soutien technique & logistique : Manuel Goepfert
Assistance : Marc-Olivier Méhu




SOURCES & CREDITS :

   NOAA